Terminal Aerodrome Forecast
Issued by NWS Pittsburgh, PA

Current Version | Previous Version | Text Only | Print | Product List | Glossary Off
Versions: 1 2 3 4 5 6 7 8 9 10 11 12 13 14 15 16 17 18 19 20 21 22 23 24 25 26 27 28

000
FTUS41 KPBZ 242320
TAFPIT
TAF
KPIT 242320Z 2500/2606 09008KT P6SM -RA SCT015 OVC035
     FM250300 10008KT P6SM BKN025
     FM251100 01006KT P6SM OVC015
     FM251700 32008KT P6SM VCSH OVC008
     FM260200 30007KT P6SM SCT015=

USA.gov is the U.S. government's official web portal to all federal, state and local government web resources and services.